createdAt,value
2017-09-29T00:01:57.523Z,13.20
2017-09-29T00:06:02.059Z,14.90
2017-09-29T00:10:06.271Z,14.40
2017-09-29T00:14:10.830Z,13.60
2017-09-29T00:18:14.299Z,14.80
2017-09-29T00:22:18.137Z,11.67
2017-09-29T00:26:22.358Z,11.93
2017-09-29T00:30:26.868Z,11.53
2017-09-29T00:34:30.439Z,14.10
2017-09-29T00:38:34.214Z,14.00
2017-09-29T00:42:38.447Z,12.40
2017-09-29T00:46:42.264Z,12.40
2017-09-29T00:50:45.728Z,12.17
2017-09-29T00:54:49.492Z,13.43
2017-09-29T00:58:52.947Z,11.80
2017-09-29T01:02:56.707Z,14.90
2017-09-29T01:07:00.167Z,14.57
2017-09-29T01:11:04.018Z,11.40
2017-09-29T01:15:08.247Z,11.70
2017-09-29T01:19:12.785Z,11.03
2017-09-29T01:23:17.068Z,10.50
2017-09-29T01:27:20.932Z,11.60
2017-09-29T01:31:24.395Z,10.80
2017-09-29T01:35:28.240Z,13.23
2017-09-29T01:39:32.450Z,13.07
2017-09-29T01:43:36.202Z,12.50
2017-09-29T01:47:39.666Z,10.83
2017-09-29T01:51:43.420Z,11.97
2017-09-29T01:55:46.870Z,13.23
2017-09-29T01:59:50.635Z,12.30
2017-09-29T02:03:54.096Z,11.77
2017-09-29T02:07:57.847Z,12.17
2017-09-29T02:12:02.077Z,12.00
2017-09-29T02:16:06.627Z,13.33
2017-09-29T02:20:10.093Z,14.83
2017-09-29T02:24:13.932Z,10.90
2017-09-29T02:28:18.166Z,12.57
2017-09-29T02:32:21.980Z,11.47
2017-09-29T02:36:25.444Z,13.50
2017-09-29T02:40:29.199Z,18.33
2017-09-29T02:44:32.653Z,11.23
2017-09-29T02:48:36.728Z,11.10
2017-09-29T02:52:40.178Z,12.60
2017-09-29T02:56:51.099Z,11.27
2017-09-29T03:01:01.308Z,12.17
2017-09-29T03:05:11.409Z,12.63
2017-09-29T03:09:14.851Z,12.03
2017-09-29T03:13:18.664Z,11.20
2017-09-29T03:17:22.127Z,11.13
2017-09-29T03:21:25.893Z,12.30
2017-09-29T03:25:29.360Z,12.00
2017-09-29T03:29:33.208Z,10.77
2017-09-29T03:33:36.668Z,10.73
2017-09-29T03:37:40.433Z,14.20
2017-09-29T03:41:43.900Z,12.53
2017-09-29T03:45:47.738Z,10.40
2017-09-29T03:49:55.876Z,10.10
2017-09-29T03:54:06.914Z,13.40
2017-09-29T03:58:17.628Z,11.50
2017-09-29T04:02:22.158Z,10.20
2017-09-29T04:06:25.633Z,11.83
2017-09-29T04:10:29.475Z,12.10
2017-09-29T04:14:33.706Z,10.77
2017-09-29T04:18:38.235Z,12.70
2017-09-29T04:22:42.459Z,14.10
2017-09-29T04:26:46.994Z,10.47
2017-09-29T04:30:51.221Z,12.60
2017-09-29T04:34:55.034Z,9.73
2017-09-29T04:38:59.256Z,10.23
2017-09-29T04:43:03.899Z,13.97
2017-09-29T04:47:08.126Z,12.00
2017-09-29T04:51:11.938Z,11.63
2017-09-29T04:55:16.168Z,10.00
2017-09-29T04:59:19.955Z,12.00
2017-09-29T05:03:23.411Z,12.27
2017-09-29T05:07:27.198Z,10.20
2017-09-29T05:11:31.426Z,13.37
2017-09-29T05:15:35.967Z,10.60
2017-09-29T05:19:39.435Z,12.10
2017-09-29T05:23:43.282Z,12.23
2017-09-29T05:27:46.749Z,9.67
2017-09-29T05:31:50.504Z,11.70
2017-09-29T05:35:53.972Z,11.67
2017-09-29T05:39:57.822Z,9.73
2017-09-29T05:44:02.056Z,9.87
2017-09-29T05:48:05.802Z,10.87
2017-09-29T05:52:09.277Z,10.00
2017-09-29T05:56:13.093Z,11.67
2017-09-29T06:00:16.559Z,11.80
2017-09-29T06:04:20.414Z,10.03
2017-09-29T06:08:23.879Z,11.90
2017-09-29T06:12:27.727Z,10.87
2017-09-29T06:16:31.947Z,13.07
2017-09-29T06:20:36.489Z,10.77
2017-09-29T06:24:40.706Z,12.43
2017-09-29T06:28:45.247Z,14.87
2017-09-29T06:32:49.486Z,12.23
2017-09-29T06:36:53.238Z,13.77
2017-09-29T06:40:56.707Z,10.23
2017-09-29T06:45:00.506Z,13.43
2017-09-29T06:49:04.722Z,13.80
2017-09-29T06:53:09.358Z,11.20
2017-09-29T06:57:13.597Z,12.83
2017-09-29T07:01:17.403Z,11.73
2017-09-29T07:05:21.667Z,12.80
2017-09-29T07:09:25.431Z,14.63
2017-09-29T07:13:28.894Z,12.07
2017-09-29T07:17:32.768Z,13.37
2017-09-29T07:21:36.995Z,14.17
2017-09-29T07:25:46.176Z,12.87
2017-09-29T07:29:52.395Z,18.00
2017-09-29T07:33:56.927Z,12.77
2017-09-29T07:38:01.154Z,15.27
2017-09-29T07:42:05.687Z,15.07
2017-09-29T07:46:09.924Z,14.77
2017-09-29T07:50:14.447Z,15.93
2017-09-29T07:54:18.692Z,15.23
2017-09-29T07:58:22.472Z,15.30
2017-09-29T08:02:25.938Z,13.40
2017-09-29T08:06:29.819Z,15.13
2017-09-29T08:10:34.046Z,11.00
2017-09-29T08:14:38.576Z,13.07
2017-09-29T08:18:42.787Z,16.90
2017-09-29T08:22:47.327Z,18.97
2017-09-29T08:26:51.628Z,12.67
2017-09-29T08:30:55.472Z,13.67
2017-09-29T08:34:59.701Z,15.23
2017-09-29T08:39:04.222Z,15.03
2017-09-29T08:43:08.453Z,16.00
2017-09-29T08:47:12.994Z,12.50
2017-09-29T08:51:16.456Z,16.00
2017-09-29T08:55:20.311Z,17.00
2017-09-29T08:59:24.543Z,13.00
2017-09-29T09:03:28.356Z,13.37
2017-09-29T09:07:31.817Z,10.80
2017-09-29T09:11:35.579Z,13.60
2017-09-29T09:15:39.043Z,13.23
2017-09-29T09:19:42.896Z,14.20
2017-09-29T09:23:47.128Z,12.90
2017-09-29T09:27:50.975Z,13.07
2017-09-29T09:31:54.447Z,15.20
2017-09-29T09:35:59.089Z,18.00
2017-09-29T09:40:02.561Z,12.20
2017-09-29T09:44:06.317Z,11.53
2017-09-29T09:48:09.776Z,13.93
2017-09-29T09:52:13.636Z,10.27
2017-09-29T09:56:17.095Z,11.30
2017-09-29T10:00:20.947Z,10.30
2017-09-29T10:04:25.167Z,10.07
2017-09-29T10:08:29.717Z,9.03
2017-09-29T10:12:33.228Z,10.43
2017-09-29T10:16:37.028Z,9.60
2017-09-29T10:20:41.255Z,9.50
2017-09-29T10:24:45.788Z,8.77
2017-09-29T10:28:50.023Z,8.00
2017-09-29T10:32:53.824Z,11.27
2017-09-29T10:36:58.023Z,9.13
2017-09-29T10:41:01.658Z,7.80
2017-09-29T10:45:05.891Z,7.67
2017-09-29T10:49:09.362Z,8.13
2017-09-29T10:53:12.819Z,7.80
2017-09-29T10:57:16.623Z,11.60
2017-09-29T11:01:20.074Z,9.10
2017-09-29T11:05:23.817Z,8.77
2017-09-29T11:09:27.270Z,8.60
2017-09-29T11:13:30.864Z,8.60
2017-09-29T11:17:34.322Z,10.03
2017-09-29T11:21:37.824Z,8.53
2017-09-29T11:25:41.283Z,10.70
2017-09-29T11:29:44.760Z,7.33
2017-09-29T11:33:48.219Z,8.10
2017-09-29T11:37:52.007Z,8.73
2017-09-29T11:41:55.471Z,8.33
2017-09-29T11:45:58.978Z,11.27
2017-09-29T11:50:02.431Z,8.00
2017-09-29T11:54:06.688Z,8.40
2017-09-29T11:58:10.142Z,9.97
2017-09-29T12:02:13.632Z,9.10
2017-09-29T12:06:17.122Z,9.03
2017-09-29T12:10:20.599Z,6.97
2017-09-29T12:14:24.082Z,6.27
2017-09-29T12:18:28.630Z,8.90
2017-09-29T12:22:32.197Z,8.97
2017-09-29T12:26:35.684Z,7.67
2017-09-29T12:30:39.190Z,9.40
2017-09-29T12:34:42.675Z,7.57
2017-09-29T12:38:46.131Z,5.73
2017-09-29T12:42:49.631Z,7.77
2017-09-29T12:46:53.105Z,6.57
2017-09-29T12:50:56.891Z,8.80
2017-09-29T12:55:01.110Z,6.80
2017-09-29T12:59:05.354Z,9.07
2017-09-29T13:03:08.809Z,6.90
2017-09-29T13:07:12.573Z,8.00
2017-09-29T13:11:16.014Z,7.70
2017-09-29T13:15:19.538Z,6.93
2017-09-29T13:19:22.995Z,6.53
2017-09-29T13:23:26.803Z,7.50
2017-09-29T13:27:31.019Z,7.60
2017-09-29T13:31:35.659Z,5.87
2017-09-29T13:35:39.893Z,7.90
2017-09-29T13:39:43.691Z,7.27
2017-09-29T13:43:47.909Z,6.20
2017-09-29T13:47:52.175Z,8.03
2017-09-29T13:51:55.630Z,7.77
2017-09-29T13:55:59.263Z,8.00
2017-09-29T14:00:03.508Z,6.50
2017-09-29T14:04:06.996Z,6.83
2017-09-29T14:08:11.205Z,6.37
2017-09-29T14:12:16.267Z,8.73
2017-09-29T14:16:20.501Z,5.50
2017-09-29T14:20:23.977Z,6.87
2017-09-29T14:24:27.444Z,6.17
2017-09-29T14:28:30.923Z,4.93
2017-09-29T14:32:34.447Z,6.10
2017-09-29T14:36:37.937Z,5.00
2017-09-29T14:40:42.179Z,5.83
2017-09-29T14:44:45.670Z,5.20
2017-09-29T14:48:49.892Z,7.90
2017-09-29T14:52:54.432Z,5.77
2017-09-29T14:56:57.878Z,6.13
2017-09-29T15:01:01.331Z,5.23
2017-09-29T15:05:05.676Z,7.40
2017-09-29T15:09:09.166Z,5.37
2017-09-29T15:13:13.499Z,7.23
2017-09-29T15:17:17.731Z,5.03
2017-09-29T15:21:21.189Z,6.10
2017-09-29T15:25:24.670Z,6.77
2017-09-29T15:29:28.191Z,7.10
2017-09-29T15:33:31.665Z,5.43
2017-09-29T15:37:35.130Z,5.20
2017-09-29T15:41:38.611Z,5.70
2017-09-29T15:45:42.058Z,5.13
2017-09-29T15:49:45.807Z,5.20
2017-09-29T15:53:49.259Z,4.53
2017-09-29T15:57:53.110Z,4.80
2017-09-29T16:01:56.571Z,5.73
2017-09-29T16:06:00.071Z,5.50
2017-09-29T16:10:03.531Z,4.77
2017-09-29T16:14:07.776Z,5.80
2017-09-29T16:18:11.231Z,4.70
2017-09-29T16:22:14.729Z,4.07
2017-09-29T16:26:18.190Z,4.03
2017-09-29T16:30:21.662Z,4.30
2017-09-29T16:34:25.127Z,5.10
2017-09-29T16:38:28.617Z,4.37
2017-09-29T16:42:32.070Z,4.20
2017-09-29T16:46:35.550Z,4.60
2017-09-29T16:50:39.003Z,5.97
2017-09-29T16:54:42.478Z,5.20
2017-09-29T16:58:45.919Z,5.30
2017-09-29T17:02:50.906Z,4.60
2017-09-29T17:06:54.363Z,5.40
2017-09-29T17:10:57.838Z,6.63
2017-09-29T17:15:01.291Z,4.60
2017-09-29T17:19:05.569Z,4.63
2017-09-29T17:23:09.072Z,3.60
2017-09-29T17:27:12.550Z,4.20
2017-09-29T17:31:16.006Z,5.40
2017-09-29T17:35:19.490Z,5.00
2017-09-29T17:39:23.104Z,4.27
2017-09-29T17:43:26.583Z,4.40
2017-09-29T17:47:31.685Z,4.83
2017-09-29T17:51:35.431Z,4.03
2017-09-29T17:55:39.652Z,5.10
2017-09-29T17:59:43.891Z,3.50
2017-09-29T18:03:48.107Z,4.10
2017-09-29T18:07:52.351Z,5.17
2017-09-29T18:11:55.798Z,4.50
2017-09-29T18:15:59.284Z,4.70
2017-09-29T18:20:02.865Z,4.60
2017-09-29T18:24:07.125Z,5.43
2017-09-29T18:28:10.582Z,8.03
2017-09-29T18:32:15.124Z,4.83
2017-09-29T18:36:19.334Z,6.03
2017-09-29T18:40:24.141Z,9.27
2017-09-29T18:44:27.610Z,6.77
2017-09-29T18:48:32.055Z,6.63
2017-09-29T18:52:35.516Z,6.03
2017-09-29T18:56:39.003Z,7.30
2017-09-29T19:00:42.466Z,13.00
2017-09-29T19:04:45.951Z,6.60
2017-09-29T19:08:50.172Z,7.77
2017-09-29T19:12:54.426Z,10.93
2017-09-29T19:16:57.898Z,6.20
2017-09-29T19:21:01.383Z,7.37
2017-09-29T19:25:04.842Z,7.30
2017-09-29T19:29:08.649Z,5.87
2017-09-29T19:33:12.110Z,5.83
2017-09-29T19:37:15.606Z,8.90
2017-09-29T19:41:19.106Z,7.80
2017-09-29T19:45:22.579Z,6.70
2017-09-29T19:49:26.043Z,7.40
2017-09-29T19:53:29.525Z,6.73
2017-09-29T19:57:32.969Z,7.33
2017-09-29T20:01:36.465Z,6.70
2017-09-29T20:05:39.921Z,7.23
2017-09-29T20:09:43.407Z,6.97
2017-09-29T20:13:47.629Z,7.23
2017-09-29T20:17:51.894Z,7.43
2017-09-29T20:21:55.357Z,7.93
2017-09-29T20:25:59.611Z,8.20
2017-09-29T20:30:03.101Z,6.80
2017-09-29T20:34:07.352Z,6.60
2017-09-29T20:38:10.863Z,8.00
2017-09-29T20:42:14.354Z,6.50
2017-09-29T20:46:18.579Z,8.20
2017-09-29T20:50:22.823Z,7.97
2017-09-29T20:54:26.275Z,8.50
2017-09-29T20:58:29.759Z,8.57
2017-09-29T21:02:33.207Z,7.27
2017-09-29T21:06:36.697Z,7.33
2017-09-29T21:10:40.147Z,7.97
2017-09-29T21:14:43.943Z,8.53
2017-09-29T21:18:48.159Z,7.23
2017-09-29T21:22:51.648Z,6.23
2017-09-29T21:26:55.099Z,7.67
2017-09-29T21:30:58.587Z,8.03
2017-09-29T21:35:02.811Z,7.07
2017-09-29T21:39:07.059Z,7.50
2017-09-29T21:43:10.519Z,6.40
2017-09-29T21:47:14.347Z,6.97
2017-09-29T21:51:17.799Z,7.57
2017-09-29T21:55:21.294Z,7.60
2017-09-29T21:59:24.758Z,7.90
2017-09-29T22:03:28.647Z,8.47
2017-09-29T22:07:32.107Z,8.27
2017-09-29T22:11:36.354Z,7.17
2017-09-29T22:15:39.808Z,8.07
2017-09-29T22:19:43.273Z,7.97
2017-09-29T22:23:46.717Z,8.70
2017-09-29T22:27:50.191Z,6.10
2017-09-29T22:31:53.647Z,7.43
2017-09-29T22:35:57.123Z,9.50
2017-09-29T22:40:00.585Z,8.67
2017-09-29T22:44:04.846Z,7.73
2017-09-29T22:48:08.291Z,9.13
2017-09-29T22:52:11.771Z,8.43
2017-09-29T22:56:15.223Z,7.43
2017-09-29T23:00:18.708Z,7.63
2017-09-29T23:04:22.166Z,7.07
2017-09-29T23:08:25.988Z,6.60
2017-09-29T23:12:29.507Z,7.07
2017-09-29T23:16:32.987Z,7.07
2017-09-29T23:20:36.415Z,7.33
2017-09-29T23:24:39.896Z,8.50
2017-09-29T23:28:44.111Z,8.43
2017-09-29T23:32:48.357Z,7.93
2017-09-29T23:36:51.810Z,7.10
2017-09-29T23:40:55.294Z,7.80
2017-09-29T23:44:58.742Z,8.20
2017-09-29T23:49:02.228Z,9.47
2017-09-29T23:53:05.682Z,7.07
2017-09-29T23:57:10.212Z,8.10
